Time;durP1;ratioP1;P1;durP2;ratioP2;P2;SDS_P1;SDS_P2;PMS_P1;PMS_P2;Temp;Humidity;BMP_temperature;BMP_pressure;BME280_temperature;BME280_humidity;BME280_pressure;Samples;Min_cycle;Max_cycle;Signal;HPM_P1;HPM_P2
2022/01/04 00:00:08;;;;;;;9.23;2.03;;;7.90;99.90;;;;;;5015362;28;20042;-74
2022/01/04 00:02:34;;;;;;;10.52;2.42;;;7.90;99.90;;;;;;5016532;28;20046;-74
2022/01/04 00:04:59;;;;;;;0.30;0.30;;;7.80;99.90;;;;;;5022633;28;20034;-74
2022/01/04 00:07:25;;;;;;;0.52;0.50;;;7.80;99.90;;;;;;5009315;28;20046;-75
2022/01/04 00:09:52;;;;;;;3.55;2.42;;;7.80;99.90;;;;;;5026480;28;20049;-74
2022/01/04 00:15:04;;;;;;;0.50;0.50;;;7.70;99.90;;;;;;5061237;28;20041;-75
2022/01/04 00:17:31;;;;;;;0.10;0.10;;;7.70;99.90;;;;;;5029358;28;20048;-75
2022/01/04 00:19:56;;;;;;;0.30;0.30;;;7.60;99.90;;;;;;5025587;28;20137;-74
2022/01/04 00:22:22;;;;;;;7.03;1.70;;;7.60;99.90;;;;;;5021714;28;20189;-74
2022/01/04 00:24:48;;;;;;;0.70;0.45;;;7.50;99.90;;;;;;5013186;28;20049;-75
2022/01/04 00:27:13;;;;;;;2.00;1.90;;;7.50;99.90;;;;;;5029044;28;20038;-74
2022/01/04 00:29:39;;;;;;;0.63;0.63;;;7.50;99.90;;;;;;5024595;28;20046;-75
2022/01/04 00:32:05;;;;;;;9.93;1.52;;;7.50;99.90;;;;;;5021629;28;20624;-74
2022/01/04 00:34:31;;;;;;;2.58;2.05;;;7.50;99.90;;;;;;5029467;28;20146;-75
2022/01/04 00:36:57;;;;;;;0.68;0.68;;;7.50;99.90;;;;;;5024349;28;20095;-74
2022/01/04 00:39:25;;;;;;;0.50;0.50;;;7.60;99.90;;;;;;5017980;28;20132;-74
2022/01/04 00:41:51;;;;;;;12.15;2.92;;;7.50;99.90;;;;;;5029622;28;20508;-74
2022/01/04 00:44:16;;;;;;;0.65;0.52;;;7.50;99.90;;;;;;5029679;28;20418;-74
2022/01/04 00:46:42;;;;;;;11.80;2.92;;;7.60;99.90;;;;;;5029274;28;20041;-74
2022/01/04 00:49:11;;;;;;;8.30;4.32;;;7.60;99.90;;;;;;5016456;28;20037;-74
2022/01/04 00:51:47;;;;;;;5.20;1.35;;;7.60;99.90;;;;;;5028740;28;20037;-74
2022/01/04 00:54:13;;;;;;;0.30;0.30;;;7.60;99.90;;;;;;5012247;28;20508;-74
2022/01/04 00:56:40;;;;;;;0.88;0.85;;;7.60;99.90;;;;;;5021200;28;20092;-74
2022/01/04 00:59:06;;;;;;;6.10;1.27;;;7.70;99.90;;;;;;5028995;28;20037;-75
2022/01/04 01:01:33;;;;;;;9.20;2.05;;;7.70;99.90;;;;;;5028995;28;20348;-74
2022/01/04 01:03:58;;;;;;;19.00;5.05;;;7.80;99.90;;;;;;5028781;28;20065;-74
2022/01/04 01:06:25;;;;;;;0.50;0.50;;;7.80;99.90;;;;;;5019400;28;20547;-74
2022/01/04 01:08:50;;;;;;;9.25;2.38;;;7.80;99.90;;;;;;5029313;28;20414;-74
2022/01/04 01:11:16;;;;;;;11.13;1.65;;;7.80;99.90;;;;;;5028694;28;20045;-75
2022/01/04 01:13:42;;;;;;;7.53;2.45;;;7.80;99.90;;;;;;5023003;28;20119;-74
2022/01/04 01:16:09;;;;;;;26.05;3.97;;;7.80;99.90;;;;;;5063404;28;20080;-74
2022/01/04 01:18:35;;;;;;;6.93;2.88;;;7.80;99.90;;;;;;5033195;28;20123;-74
2022/01/04 01:21:02;;;;;;;1.30;1.23;;;7.90;99.90;;;;;;5031878;28;20054;-74
2022/01/04 01:23:29;;;;;;;6.95;1.77;;;7.90;99.90;;;;;;5015886;28;20045;-74
2022/01/04 01:25:56;;;;;;;2.03;1.23;;;7.90;99.90;;;;;;5031521;28;20049;-74
2022/01/04 01:28:22;;;;;;;10.25;3.58;;;8.00;99.90;;;;;;5032326;28;20049;-74
2022/01/04 01:30:48;;;;;;;9.20;1.85;;;8.00;99.90;;;;;;5030164;28;20049;-74
2022/01/04 01:33:15;;;;;;;17.23;3.30;;;8.00;99.90;;;;;;5032788;28;20041;-75
2022/01/04 01:35:41;;;;;;;6.78;1.60;;;8.00;99.90;;;;;;5031387;28;20513;-74
2022/01/04 01:38:08;;;;;;;10.13;0.80;;;8.00;99.90;;;;;;5013377;28;20037;-74
2022/01/04 01:40:35;;;;;;;0.63;0.63;;;8.00;99.90;;;;;;5028119;28;20077;-75
2022/01/04 01:43:01;;;;;;;9.65;1.55;;;8.00;99.90;;;;;;5032220;28;20049;-75
2022/01/04 01:45:27;;;;;;;2.30;1.65;;;8.00;99.90;;;;;;5031950;28;20065;-75
2022/01/04 01:47:53;;;;;;;0.85;0.80;;;8.00;99.90;;;;;;5030058;28;20131;-75
2022/01/04 01:50:20;;;;;;;18.70;2.38;;;8.00;99.90;;;;;;5022007;28;20474;-74
2022/01/04 01:52:51;;;;;;;16.35;2.33;;;8.00;99.90;;;;;;5032319;28;20049;-74
2022/01/04 01:55:19;;;;;;;24.40;3.90;;;7.90;99.90;;;;;;5031904;28;20045;-74
2022/01/04 01:57:46;;;;;;;7.15;2.20;;;7.90;99.90;;;;;;5027651;28;20506;-74
2022/01/04 02:00:14;;;;;;;3.90;1.55;;;7.90;99.90;;;;;;5044686;28;20041;-74
2022/01/04 02:02:40;;;;;;;2.08;1.95;;;7.90;99.90;;;;;;5032010;28;20045;-75
2022/01/04 02:05:07;;;;;;;9.85;1.83;;;7.80;99.90;;;;;;5030523;28;20460;-74
2022/01/04 02:07:34;;;;;;;3.30;1.25;;;7.80;99.90;;;;;;5024469;28;20501;-74
2022/01/04 02:10:04;;;;;;;2.15;0.73;;;7.80;99.90;;;;;;5032035;28;20053;-75
2022/01/04 02:12:34;;;;;;;8.77;2.60;;;7.80;99.90;;;;;;5031901;28;20076;-74
2022/01/04 02:15:00;;;;;;;7.38;1.85;;;7.80;99.90;;;;;;5026409;28;20061;-74
2022/01/04 02:17:27;;;;;;;4.57;0.77;;;7.80;99.90;;;;;;5031178;28;20077;-74
2022/01/04 02:19:57;;;;;;;6.78;1.25;;;7.80;99.90;;;;;;5031652;28;20042;-74
2022/01/04 02:22:23;;;;;;;2.70;1.85;;;7.80;99.90;;;;;;5031572;28;20068;-75
2022/01/04 02:24:50;;;;;;;8.10;1.95;;;7.80;99.90;;;;;;5013755;28;20133;-74
2022/01/04 02:27:16;;;;;;;1.95;0.82;;;7.80;99.90;;;;;;5030027;28;20071;-74
2022/01/04 02:29:43;;;;;;;1.98;1.10;;;7.80;99.90;;;;;;5026367;28;20045;-75
2022/01/04 02:32:10;;;;;;;12.00;2.42;;;7.90;99.90;;;;;;5028548;28;20077;-75
2022/01/04 02:34:36;;;;;;;10.07;2.47;;;7.90;99.90;;;;;;5031322;28;20095;-75
2022/01/04 02:37:02;;;;;;;3.50;1.13;;;8.00;99.90;;;;;;5030819;28;20551;-74
2022/01/04 02:39:29;;;;;;;2.28;1.67;;;8.00;99.90;;;;;;5022715;28;20105;-74
2022/01/04 02:41:55;;;;;;;3.78;0.82;;;8.10;99.90;;;;;;5029463;28;20450;-74
2022/01/04 02:44:21;;;;;;;3.78;2.60;;;8.10;99.90;;;;;;5031543;28;20064;-75
2022/01/04 02:46:46;;;;;;;1.55;0.60;;;8.10;99.90;;;;;;5030909;28;20232;-74
2022/01/04 02:49:12;;;;;;;2.00;1.48;;;8.10;99.90;;;;;;5021994;28;20042;-75
2022/01/04 02:51:38;;;;;;;3.67;1.15;;;8.20;99.90;;;;;;5031508;28;20037;-74
2022/01/04 02:54:05;;;;;;;0.88;0.55;;;8.20;99.90;;;;;;5030922;28;20052;-74
2022/01/04 02:56:31;;;;;;;20.33;3.00;;;8.20;99.90;;;;;;5024500;28;20033;-74
2022/01/04 02:59:03;;;;;;;0.77;0.77;;;8.30;99.90;;;;;;5025086;28;20037;-74
2022/01/04 03:01:32;;;;;;;3.97;2.47;;;8.30;99.90;;;;;;5030787;28;20049;-74
2022/01/04 03:03:58;;;;;;;0.20;0.20;;;8.30;99.90;;;;;;5030819;28;20490;-75
2022/01/04 03:06:24;;;;;;;2.33;1.90;;;8.30;99.90;;;;;;5027647;28;20045;-74
2022/01/04 03:08:50;;;;;;;15.77;2.47;;;8.30;99.90;;;;;;5030736;28;20060;-74
2022/01/04 03:11:16;;;;;;;10.40;2.85;;;8.20;99.90;;;;;;5030770;28;20037;-75
2022/01/04 03:13:41;;;;;;;8.20;2.25;;;8.30;99.90;;;;;;5027287;28;20524;-74
2022/01/04 03:16:07;;;;;;;10.63;3.22;;;8.30;99.90;;;;;;5060533;28;20053;-74
2022/01/04 03:18:33;;;;;;;11.55;1.30;;;8.30;99.90;;;;;;5030685;28;20045;-74
2022/01/04 03:20:59;;;;;;;2.50;1.65;;;8.30;99.90;;;;;;5029025;28;20049;-74
2022/01/04 03:23:25;;;;;;;4.82;2.00;;;8.30;99.90;;;;;;5039292;28;20098;-74
2022/01/04 03:25:50;;;;;;;10.10;4.10;;;8.30;99.90;;;;;;5030629;28;20056;-74
2022/01/04 03:28:19;;;;;;;0.60;0.60;;;8.30;99.90;;;;;;5030878;28;20124;-74
2022/01/04 03:30:46;;;;;;;10.95;2.90;;;8.30;99.90;;;;;;5018221;28;20147;-74
2022/01/04 03:33:11;;;;;;;13.20;2.97;;;8.30;99.90;;;;;;5029703;28;20124;-74
2022/01/04 03:35:37;;;;;;;12.43;2.35;;;8.30;99.90;;;;;;5013424;28;20124;-74
2022/01/04 03:38:03;;;;;;;3.70;1.35;;;8.30;99.90;;;;;;5027454;28;20799;-74
2022/01/04 03:40:29;;;;;;;4.18;0.85;;;8.20;99.90;;;;;;5040122;28;20076;-74
2022/01/04 03:42:55;;;;;;;0.43;0.43;;;8.20;99.90;;;;;;5030346;28;20151;-74
2022/01/04 03:45:20;;;;;;;0.30;0.30;;;8.30;99.90;;;;;;5030124;28;20045;-74
2022/01/04 03:47:46;;;;;;;3.42;1.38;;;8.30;99.90;;;;;;5017684;28;20133;-74
2022/01/04 03:50:12;;;;;;;22.00;3.03;;;8.20;99.90;;;;;;5029917;28;20068;-74
2022/01/04 03:52:39;;;;;;;1.05;0.50;;;8.30;99.90;;;;;;5046939;28;20433;-74
2022/01/04 03:55:06;;;;;;;4.25;1.85;;;8.30;99.90;;;;;;5027253;28;20041;-74
2022/01/04 03:57:32;;;;;;;10.55;1.33;;;8.30;99.90;;;;;;5051987;28;20187;-74
2022/01/04 03:59:58;;;;;;;8.35;2.22;;;8.30;99.90;;;;;;5029660;28;20103;-74
2022/01/04 04:02:24;;;;;;;1.17;0.95;;;8.30;99.90;;;;;;5029156;28;20436;-74
2022/01/04 04:04:50;;;;;;;2.47;1.98;;;8.30;99.90;;;;;;5025434;28;20041;-74
2022/01/04 04:07:15;;;;;;;2.85;2.00;;;8.30;99.90;;;;;;5029621;28;20069;-74
2022/01/04 04:09:41;;;;;;;8.40;2.03;;;8.30;99.90;;;;;;5027203;28;20092;-74
2022/01/04 04:12:08;;;;;;;3.47;0.77;;;8.30;99.90;;;;;;5023714;28;20052;-74
2022/01/04 04:14:33;;;;;;;4.43;1.77;;;8.20;99.90;;;;;;5024301;28;20053;-74
2022/01/04 04:16:59;;;;;;;0.93;0.93;;;8.20;99.90;;;;;;5028882;28;20049;-74
2022/01/04 04:19:25;;;;;;;6.65;1.55;;;8.20;99.90;;;;;;5029434;28;20041;-74
2022/01/04 04:21:51;;;;;;;0.40;0.40;;;8.20;99.90;;;;;;5017581;28;20583;-74
2022/01/04 04:24:16;;;;;;;8.63;2.80;;;8.20;99.90;;;;;;5029711;28;20079;-74
2022/01/04 04:26:43;;;;;;;7.97;2.78;;;8.20;99.90;;;;;;5029069;28;20077;-74
2022/01/04 04:29:09;;;;;;;5.95;0.45;;;8.10;99.90;;;;;;5039214;28;20037;-74
2022/01/04 04:31:35;;;;;;;2.83;1.23;;;8.20;99.90;;;;;;5057610;28;20044;-74
2022/01/04 04:34:01;;;;;;;2.28;1.50;;;8.20;99.90;;;;;;5029283;28;20490;-74
2022/01/04 04:36:27;;;;;;;0.32;0.32;;;8.20;99.90;;;;;;5029285;28;20464;-74
2022/01/04 04:38:53;;;;;;;1.33;1.20;;;8.10;99.90;;;;;;5024256;28;20043;-74
2022/01/04 04:41:19;;;;;;;10.93;1.77;;;8.10;99.90;;;;;;5012920;28;20102;-74
2022/01/04 04:43:45;;;;;;;6.32;2.30;;;8.10;99.90;;;;;;5020450;28;20052;-74
2022/01/04 04:46:11;;;;;;;3.17;1.60;;;8.10;99.90;;;;;;5037823;28;20068;-74
2022/01/04 04:48:37;;;;;;;4.32;2.33;;;8.10;99.90;;;;;;5029053;28;20067;-74
2022/01/04 04:51:03;;;;;;;4.88;2.25;;;8.10;99.90;;;;;;5028409;28;20144;-74
2022/01/04 04:53:28;;;;;;;5.88;3.92;;;8.10;99.90;;;;;;5027977;28;20043;-74
2022/01/04 04:55:54;;;;;;;0.20;0.20;;;8.10;99.90;;;;;;5055115;28;20043;-74
2022/01/04 04:58:20;;;;;;;10.10;2.53;;;8.10;99.90;;;;;;5028811;28;20053;-74
2022/01/04 05:00:45;;;;;;;3.65;0.70;;;8.10;99.90;;;;;;5028733;28;20073;-74
2022/01/04 05:03:14;;;;;;;0.40;0.40;;;8.10;99.90;;;;;;5043574;28;20041;-74
2022/01/04 05:05:40;;;;;;;0.93;0.75;;;8.10;99.90;;;;;;5028428;28;20045;-74
2022/01/04 05:08:06;;;;;;;5.65;1.40;;;8.10;99.90;;;;;;5021391;28;20107;-74
2022/01/04 05:10:31;;;;;;;5.00;3.53;;;8.10;99.90;;;;;;5022791;28;20132;-74
2022/01/04 05:12:57;;;;;;;5.68;1.98;;;8.10;99.90;;;;;;5029032;28;20164;-74
2022/01/04 05:15:23;;;;;;;5.57;1.88;;;8.10;99.90;;;;;;5009716;28;20045;-74
2022/01/04 05:17:49;;;;;;;1.83;1.38;;;8.10;99.90;;;;;;5026019;28;20493;-74
2022/01/04 05:20:15;;;;;;;6.57;1.45;;;8.10;99.90;;;;;;5028620;28;20048;-74
2022/01/04 05:22:41;;;;;;;13.07;3.33;;;8.00;99.90;;;;;;5029200;28;20084;-74
2022/01/04 05:25:08;;;;;;;7.45;2.38;;;8.10;99.90;;;;;;5024507;28;20056;-74
2022/01/04 05:27:33;;;;;;;6.85;1.58;;;8.10;99.90;;;;;;5028553;28;20123;-74
2022/01/04 05:29:59;;;;;;;24.08;5.13;;;8.10;99.90;;;;;;5027215;28;20042;-74
2022/01/04 05:32:25;;;;;;;13.52;3.83;;;8.10;99.90;;;;;;5028599;28;20045;-74
2022/01/04 05:34:51;;;;;;;14.23;2.38;;;8.10;99.90;;;;;;5028687;28;20054;-74
2022/01/04 05:37:17;;;;;;;0.57;0.50;;;8.10;99.90;;;;;;5027819;28;20120;-74
2022/01/04 05:39:42;;;;;;;7.63;2.28;;;8.10;99.90;;;;;;5050558;28;20041;-74
2022/01/04 05:42:08;;;;;;;0.98;0.57;;;8.10;99.90;;;;;;5028486;28;20059;-74
2022/01/04 05:44:36;;;;;;;1.65;0.80;;;8.10;99.90;;;;;;5028634;28;20041;-74
2022/01/04 05:47:01;;;;;;;1.45;1.10;;;8.10;99.90;;;;;;5019151;28;20460;-74
2022/01/04 05:49:27;;;;;;;1.23;0.93;;;8.10;99.90;;;;;;5028568;28;20045;-74
2022/01/04 05:51:53;;;;;;;3.72;1.52;;;8.10;99.90;;;;;;5028618;28;20412;-74
2022/01/04 05:54:19;;;;;;;1.25;0.60;;;8.10;99.90;;;;;;5028156;28;20107;-74
2022/01/04 05:56:44;;;;;;;2.67;1.33;;;8.10;99.90;;;;;;5042622;28;20076;-74
2022/01/04 05:59:10;;;;;;;1.38;1.27;;;8.00;99.90;;;;;;5028543;28;20077;-74
2022/01/04 06:01:37;;;;;;;0.63;0.63;;;8.10;99.90;;;;;;5030145;28;20067;-74
2022/01/04 06:04:03;;;;;;;0.45;0.45;;;8.10;99.90;;;;;;5023390;28;20124;-74
2022/01/04 06:06:29;;;;;;;1.27;0.60;;;8.10;99.90;;;;;;5031838;28;20120;-74
2022/01/04 06:08:55;;;;;;;1.80;1.50;;;8.10;99.90;;;;;;5032197;28;20049;-74
2022/01/04 06:16:49;;;;;;;1.00;0.50;;;8.10;99.90;;;;;;5031744;28;20056;-74
2022/01/04 06:19:14;;;;;;;1.45;1.00;;;8.10;99.90;;;;;;5032151;28;20041;-74
2022/01/04 06:21:40;;;;;;;5.88;1.42;;;8.10;99.90;;;;;;5030510;28;20056;-74
2022/01/04 06:24:06;;;;;;;0.50;0.50;;;8.20;99.90;;;;;;5056568;28;20049;-74
2022/01/04 06:26:32;;;;;;;31.92;6.03;;;8.10;99.90;;;;;;5015324;28;20049;-74
2022/01/04 06:28:58;;;;;;;8.55;3.70;;;8.20;99.90;;;;;;5031602;28;20048;-74
2022/01/04 06:31:26;;;;;;;6.28;2.15;;;8.30;99.90;;;;;;5023412;28;20073;-74
2022/01/04 06:33:52;;;;;;;11.48;3.22;;;8.30;99.90;;;;;;5021447;28;20152;-74
2022/01/04 06:36:17;;;;;;;8.80;1.90;;;8.30;99.90;;;;;;5054978;28;20128;-74
2022/01/04 06:38:43;;;;;;;0.88;0.85;;;8.20;99.90;;;;;;5031128;28;20095;-74
2022/01/04 06:41:09;;;;;;;14.05;4.05;;;8.20;99.90;;;;;;5029347;28;20483;-74
2022/01/04 06:43:34;;;;;;;6.20;1.40;;;8.20;99.90;;;;;;5032110;28;20033;-74
2022/01/04 06:46:00;;;;;;;4.70;1.65;;;8.10;99.90;;;;;;5030900;28;20453;-74
2022/01/04 06:48:26;;;;;;;0.45;0.45;;;8.10;99.90;;;;;;5030402;28;20041;-74
2022/01/04 06:50:51;;;;;;;0.73;0.73;;;8.10;99.90;;;;;;5020100;28;20569;-74
2022/01/04 06:53:17;;;;;;;10.95;2.00;;;8.10;99.90;;;;;;5031293;28;20045;-74
2022/01/04 06:55:43;;;;;;;0.20;0.20;;;8.10;99.90;;;;;;5014421;28;20060;-74
2022/01/04 06:58:08;;;;;;;3.72;1.85;;;8.00;99.90;;;;;;5031905;28;20120;-74
2022/01/04 07:00:34;;;;;;;12.07;4.80;;;8.00;99.90;;;;;;5021925;28;20376;-74
2022/01/04 07:03:00;;;;;;;2.67;1.42;;;8.00;99.90;;;;;;5062631;28;20128;-74
2022/01/04 07:05:27;;;;;;;7.55;3.17;;;8.00;99.90;;;;;;5030917;28;20055;-74
2022/01/04 07:07:53;;;;;;;0.80;0.80;;;8.00;99.90;;;;;;5030699;28;20095;-74
2022/01/04 07:10:19;;;;;;;0.85;0.80;;;8.00;99.90;;;;;;5022315;28;20042;-74
2022/01/04 07:12:44;;;;;;;3.53;1.98;;;8.00;99.90;;;;;;5027732;28;20052;-74
2022/01/04 07:15:10;;;;;;;1.48;1.35;;;8.00;99.90;;;;;;5031245;28;20049;-74
2022/01/04 07:17:41;;;;;;;1.35;1.25;;;8.00;99.90;;;;;;5023701;28;20044;-74
2022/01/04 07:20:08;;;;;;;0.63;0.63;;;8.00;99.90;;;;;;5029392;28;20046;-74
2022/01/04 07:22:34;;;;;;;15.65;4.72;;;8.00;99.90;;;;;;5030726;28;20092;-74
2022/01/04 07:25:01;;;;;;;0.22;0.22;;;8.00;99.90;;;;;;5029401;28;20077;-74
2022/01/04 07:27:26;;;;;;;0.70;0.70;;;8.00;99.90;;;;;;5030018;28;20045;-74
2022/01/04 07:29:52;;;;;;;0.10;0.10;;;8.00;99.90;;;;;;5025196;28;20056;-73
2022/01/04 07:32:18;;;;;;;5.13;2.28;;;8.00;99.90;;;;;;5045466;28;20106;-73
2022/01/04 07:34:44;;;;;;;11.32;3.40;;;8.00;99.90;;;;;;5030966;28;20501;-73
2022/01/04 07:37:09;;;;;;;9.13;3.88;;;8.00;99.90;;;;;;5029668;28;20093;-73
2022/01/04 07:39:35;;;;;;;0.60;0.60;;;8.00;99.90;;;;;;5025567;28;20088;-73
2022/01/04 07:42:02;;;;;;;1.95;1.75;;;8.00;99.90;;;;;;5024058;28;20046;-73
2022/01/04 07:44:28;;;;;;;0.63;0.63;;;7.90;99.90;;;;;;5030806;28;20100;-73
2022/01/04 07:46:54;;;;;;;0.57;0.57;;;7.90;99.90;;;;;;5030291;28;20087;-74
2022/01/04 07:49:20;;;;;;;0.95;0.52;;;7.90;99.90;;;;;;5022952;28;20045;-74
2022/01/04 07:51:45;;;;;;;5.00;0.80;;;7.80;99.90;;;;;;5023426;28;20052;-73
2022/01/04 07:54:11;;;;;;;1.63;1.13;;;7.80;99.90;;;;;;5029930;28;20120;-74
2022/01/04 07:56:38;;;;;;;6.78;2.05;;;7.80;99.90;;;;;;5030037;28;20075;-74
2022/01/04 07:59:04;;;;;;;4.18;1.80;;;7.80;99.90;;;;;;5016797;28;20505;-74
2022/01/04 08:01:31;;;;;;;11.07;3.25;;;7.80;99.90;;;;;;5011122;28;20045;-73
2022/01/04 08:03:57;;;;;;;6.22;2.47;;;7.80;99.90;;;;;;5022443;28;20394;-73
2022/01/04 08:06:22;;;;;;;6.45;3.13;;;7.80;99.90;;;;;;5018800;28;20041;-73
2022/01/04 08:08:50;;;;;;;9.48;1.88;;;7.80;99.90;;;;;;5010481;28;20048;-73
2022/01/04 08:11:15;;;;;;;0.45;0.45;;;7.70;99.90;;;;;;5029563;28;20048;-74
2022/01/04 08:13:41;;;;;;;5.30;1.27;;;7.70;99.90;;;;;;5029157;28;20493;-73
2022/01/04 08:16:07;;;;;;;1.35;1.25;;;7.70;99.90;;;;;;5029222;28;20049;-73
2022/01/04 08:18:33;;;;;;;9.80;1.95;;;7.70;99.90;;;;;;5046141;28;20498;-73
2022/01/04 08:20:58;;;;;;;2.92;0.75;;;7.60;99.90;;;;;;5029516;28;20501;-73
2022/01/04 08:23:25;;;;;;;2.05;1.33;;;7.70;99.90;;;;;;5025895;28;20036;-73
2022/01/04 08:25:52;;;;;;;3.13;0.52;;;7.60;99.90;;;;;;5010575;28;20044;-73
2022/01/04 08:28:17;;;;;;;0.55;0.55;;;7.60;99.90;;;;;;5055821;28;20379;-73
2022/01/04 08:30:44;;;;;;;8.75;2.42;;;7.60;99.90;;;;;;5022252;28;20048;-73
2022/01/04 08:33:10;;;;;;;3.30;1.70;;;7.50;99.90;;;;;;5029574;28;20077;-74
2022/01/04 08:35:37;;;;;;;6.43;1.63;;;7.50;99.90;;;;;;5019259;28;20045;-73
2022/01/04 08:38:03;;;;;;;2.97;1.27;;;7.50;99.90;;;;;;5017795;28;20049;-73
2022/01/04 08:40:28;;;;;;;5.78;2.15;;;7.40;99.90;;;;;;5017056;28;20041;-73
2022/01/04 08:42:54;;;;;;;9.27;1.05;;;7.40;99.90;;;;;;5030831;28;20139;-73
2022/01/04 08:45:21;;;;;;;9.52;1.95;;;7.40;99.90;;;;;;5023816;28;20134;-73
2022/01/04 08:47:49;;;;;;;5.38;1.73;;;7.40;99.90;;;;;;5024464;28;20494;-73
2022/01/04 08:50:15;;;;;;;8.95;2.38;;;7.50;99.90;;;;;;5020689;28;20048;-73
2022/01/04 08:52:41;;;;;;;6.68;1.40;;;7.50;99.90;;;;;;5052423;28;20049;-73
2022/01/04 08:55:08;;;;;;;7.90;1.60;;;7.50;99.90;;;;;;5015316;28;20041;-73
2022/01/04 08:57:34;;;;;;;1.88;0.77;;;7.60;99.90;;;;;;5012053;28;20044;-73
2022/01/04 09:00:00;;;;;;;2.58;1.15;;;7.40;99.90;;;;;;5028895;28;20045;-73
2022/01/04 09:02:27;;;;;;;4.82;1.33;;;7.30;99.90;;;;;;5011940;28;20034;-73
2022/01/04 09:04:53;;;;;;;2.60;0.93;;;7.20;99.90;;;;;;5028607;28;20041;-72
2022/01/04 09:07:18;;;;;;;5.90;1.35;;;7.10;99.90;;;;;;5028540;28;20044;-73
2022/01/04 09:09:44;;;;;;;1.85;0.70;;;7.00;99.90;;;;;;5029077;28;20390;-73
2022/01/04 09:12:11;;;;;;;0.20;0.20;;;7.00;99.90;;;;;;5027824;28;20045;-73
2022/01/04 09:14:59;;;;;;;0.20;0.20;;;6.90;99.90;;;;;;5019577;28;21064;-73
2022/01/04 09:20:12;;;;;;;8.10;1.17;;;6.80;99.90;;;;;;5050612;28;20045;-73
2022/01/04 09:22:38;;;;;;;2.40;0.45;;;6.90;99.90;;;;;;5025376;28;20045;-73
2022/01/04 09:25:05;;;;;;;3.30;1.27;;;6.90;99.90;;;;;;5044128;28;20041;-74
2022/01/04 09:27:31;;;;;;;0.30;0.30;;;6.80;99.90;;;;;;5028187;28;20068;-73
2022/01/04 09:29:57;;;;;;;0.30;0.30;;;6.70;99.90;;;;;;5022521;28;20045;-73
2022/01/04 09:32:23;;;;;;;0.25;0.25;;;6.70;99.90;;;;;;5058475;28;20060;-73
2022/01/04 09:34:49;;;;;;;3.30;1.05;;;6.70;99.90;;;;;;5028686;28;20459;-73
2022/01/04 09:37:15;;;;;;;1.40;0.88;;;6.70;99.90;;;;;;5027108;28;20053;-74
2022/01/04 09:39:40;;;;;;;0.20;0.20;;;6.60;99.90;;;;;;5044729;28;20041;-73
2022/01/04 09:42:10;;;;;;;1.17;0.77;;;6.60;99.90;;;;;;5033174;28;20037;-73
2022/01/04 09:44:36;;;;;;;0.20;0.20;;;6.60;99.90;;;;;;5032212;28;20067;-73
2022/01/04 09:47:04;;;;;;;0.55;0.35;;;6.70;99.90;;;;;;5036752;28;20112;-74
2022/01/04 09:49:31;;;;;;;2.85;0.57;;;6.70;99.90;;;;;;5032638;28;20466;-74
2022/01/04 09:51:57;;;;;;;5.93;0.75;;;6.70;99.90;;;;;;5032706;28;20121;-73
2022/01/04 09:54:25;;;;;;;2.72;0.40;;;6.80;99.90;;;;;;5024690;28;20510;-74
2022/01/04 09:56:52;;;;;;;0.73;0.55;;;6.80;99.90;;;;;;5031828;28;20386;-74
2022/01/04 09:59:19;;;;;;;0.75;0.75;;;6.80;99.90;;;;;;5065580;28;20045;-74
2022/01/04 10:01:49;;;;;;;0.20;0.20;;;6.80;99.90;;;;;;5032488;28;20745;-74
2022/01/04 10:04:16;;;;;;;0.30;0.30;;;6.70;99.90;;;;;;5048253;28;20052;-74
2022/01/04 10:07:02;;;;;;;8.43;1.08;;;6.70;99.90;;;;;;5032126;28;20049;-74
2022/01/04 10:09:44;;;;;;;0.20;0.20;;;6.70;99.90;;;;;;5031895;28;20117;-73
2022/01/04 10:12:11;;;;;;;0.20;0.20;;;6.70;99.90;;;;;;5020479;28;20061;-74
2022/01/04 10:14:43;;;;;;;0.65;0.65;;;6.60;99.90;;;;;;5031755;28;20076;-74
2022/01/04 10:17:28;;;;;;;0.40;0.40;;;6.60;99.90;;;;;;5030668;28;20044;-73
2022/01/04 10:19:57;;;;;;;0.30;0.30;;;6.50;99.90;;;;;;5035502;28;20050;-74
2022/01/04 10:22:32;;;;;;;0.47;0.47;;;6.40;99.90;;;;;;5031773;28;20052;-74
2022/01/04 10:25:01;;;;;;;1.05;0.95;;;6.20;99.90;;;;;;5031463;28;20049;-73
2022/01/04 10:27:36;;;;;;;0.45;0.45;;;6.00;99.90;;;;;;5031123;28;20045;-73
2022/01/04 10:30:18;;;;;;;0.20;0.20;;;5.90;99.90;;;;;;5019876;28;20046;-73
2022/01/04 10:33:10;;;;;;;0.40;0.40;;;5.90;99.90;;;;;;5038053;28;20057;-73
2022/01/04 10:35:51;;;;;;;0.20;0.20;;;5.90;99.90;;;;;;5031314;28;20076;-74
2022/01/04 10:38:33;;;;;;;2.20;0.52;;;5.90;99.90;;;;;;5031264;28;20041;-74
2022/01/04 10:41:01;;;;;;;0.60;0.60;;;5.80;99.90;;;;;;5024135;28;20045;-74
2022/01/04 10:43:32;;;;;;;0.20;0.20;;;5.80;99.90;;;;;;5031778;28;20446;-74
2022/01/04 10:45:58;;;;;;;0.30;0.30;;;5.80;99.90;;;;;;5031034;28;20237;-74
2022/01/04 10:48:32;;;;;;;0.82;0.45;;;5.80;99.90;;;;;;5029262;28;20040;-74
2022/01/04 10:51:12;;;;;;;0.20;0.20;;;5.80;99.90;;;;;;5031223;28;20458;-74
2022/01/04 10:53:40;;;;;;;0.30;0.30;;;5.80;99.90;;;;;;5031404;28;20037;-74
2022/01/04 10:56:12;;;;;;;0.68;0.68;;;5.80;99.90;;;;;;5030688;28;20084;-74
2022/01/04 10:58:46;;;;;;;0.20;0.20;;;5.90;99.90;;;;;;5047552;28;20053;-74
2022/01/04 11:01:25;;;;;;;0.25;0.25;;;5.90;99.90;;;;;;5031039;28;20045;-74
2022/01/04 11:03:56;;;;;;;0.80;0.68;;;5.90;99.90;;;;;;5039584;28;20048;-74
2022/01/04 11:06:30;;;;;;;0.20;0.20;;;5.90;99.90;;;;;;5020352;28;20515;-74
2022/01/04 11:08:57;;;;;;;0.20;0.20;;;5.80;99.90;;;;;;5031142;28;20045;-74
2022/01/04 11:11:24;;;;;;;0.30;0.30;;;5.80;99.90;;;;;;5031253;28;20535;-74
2022/01/04 11:13:53;;;;;;;3.10;0.52;;;5.90;99.90;;;;;;5029449;28;20854;-74
2022/01/04 11:16:22;;;;;;;0.28;0.28;;;5.80;99.90;;;;;;5019961;28;20049;-74
2022/01/04 11:18:51;;;;;;;0.65;0.47;;;5.80;99.90;;;;;;5031035;28;20045;-73
2022/01/04 11:21:28;;;;;;;0.30;0.30;;;5.70;99.90;;;;;;5030578;28;20144;-74
2022/01/04 11:23:55;;;;;;;0.95;0.70;;;5.70;99.90;;;;;;5029103;28;20037;-74
2022/01/04 11:26:22;;;;;;;0.30;0.30;;;5.60;99.90;;;;;;5030031;28;20080;-74
2022/01/04 11:28:50;;;;;;;1.88;0.93;;;5.60;99.90;;;;;;5030691;28;20041;-74
2022/01/04 11:31:19;;;;;;;2.58;0.43;;;5.70;99.90;;;;;;5022785;28;20069;-74
2022/01/04 11:33:59;;;;;;;0.20;0.20;;;5.70;99.90;;;;;;5030467;28;20046;-74
2022/01/04 11:36:27;;;;;;;0.20;0.20;;;5.70;99.90;;;;;;5030372;28;20418;-74
2022/01/04 11:38:53;;;;;;;36.03;1.05;;;5.70;99.90;;;;;;5029443;28;20139;-74
2022/01/04 11:41:44;;;;;;;1.17;0.40;;;5.70;99.90;;;;;;5023491;28;20490;-74
2022/01/04 11:44:19;;;;;;;0.20;0.20;;;5.70;99.90;;;;;;5019297;28;20049;-74
2022/01/04 11:46:57;;;;;;;0.47;0.30;;;5.70;99.90;;;;;;5029148;28;20112;-74
2022/01/04 11:49:23;;;;;;;1.90;0.60;;;5.80;99.90;;;;;;5025421;28;20452;-74
2022/01/04 11:51:49;;;;;;;1.75;1.02;;;5.80;99.90;;;;;;5029906;28;20045;-74
2022/01/04 11:54:20;;;;;;;26.83;9.65;;;5.80;99.90;;;;;;5030268;28;20041;-74
2022/01/04 11:56:49;;;;;;;0.45;0.40;;;5.90;99.90;;;;;;5023887;28;20567;-74
2022/01/04 11:59:20;;;;;;;0.20;0.20;;;5.90;99.90;;;;;;5029103;28;20051;-74
2022/01/04 12:01:46;;;;;;;0.20;0.20;;;5.90;99.90;;;;;;5029887;28;20060;-74
2022/01/04 12:04:12;;;;;;;5.35;0.45;;;5.90;99.90;;;;;;5029122;28;20418;-74
2022/01/04 12:06:42;;;;;;;0.95;0.73;;;5.90;99.90;;;;;;5029381;28;20056;-74
2022/01/04 12:09:27;;;;;;;1.08;0.45;;;6.00;99.90;;;;;;5029672;28;20057;-74
2022/01/04 12:11:53;;;;;;;0.35;0.35;;;6.00;99.90;;;;;;5029732;28;20041;-74
2022/01/04 12:14:24;;;;;;;2.53;0.95;;;6.10;99.90;;;;;;5026164;28;20051;-74
2022/01/04 12:17:04;;;;;;;2.22;0.82;;;6.10;99.90;;;;;;5027994;28;20406;-74
2022/01/04 12:19:51;;;;;;;0.20;0.20;;;6.10;99.90;;;;;;5029633;28;20064;-74
2022/01/04 12:22:39;;;;;;;3.78;0.80;;;6.10;99.90;;;;;;5012843;28;20402;-74
2022/01/04 12:25:08;;;;;;;0.50;0.50;;;6.10;99.90;;;;;;5029890;28;20041;-74
2022/01/04 12:27:34;;;;;;;5.45;1.75;;;6.10;99.90;;;;;;5029409;28;20818;-74
2022/01/04 12:30:26;;;;;;;0.52;0.52;;;6.10;99.90;;;;;;5022892;28;20057;-74
2022/01/04 12:32:52;;;;;;;1.73;0.40;;;6.10;99.90;;;;;;5060181;28;20041;-74
2022/01/04 12:35:18;;;;;;;3.50;0.57;;;6.00;99.90;;;;;;5028433;28;20056;-74
2022/01/04 12:37:44;;;;;;;4.85;0.90;;;5.90;99.90;;;;;;5028535;28;20045;-74
2022/01/04 12:40:10;;;;;;;2.00;1.30;;;5.90;99.90;;;;;;5052774;28;20731;-74
2022/01/04 12:42:41;;;;;;;4.30;0.80;;;5.70;99.90;;;;;;5029334;28;20128;-74
2022/01/04 12:45:07;;;;;;;0.20;0.20;;;5.70;99.90;;;;;;5013236;28;20073;-74
2022/01/04 12:47:33;;;;;;;6.13;0.95;;;5.80;99.90;;;;;;5026124;28;20103;-74
2022/01/04 12:50:00;;;;;;;11.25;1.80;;;5.80;99.90;;;;;;5012996;28;20053;-74
2022/01/04 12:52:26;;;;;;;0.30;0.30;;;5.90;99.90;;;;;;5028326;28;20061;-74
2022/01/04 12:54:52;;;;;;;2.42;0.93;;;5.90;99.90;;;;;;5029414;28;20046;-74
2022/01/04 12:57:21;;;;;;;3.92;0.80;;;5.90;99.90;;;;;;5027904;28;20195;-74
2022/01/04 12:59:57;;;;;;;2.45;0.63;;;5.90;99.90;;;;;;5013018;28;20452;-74
2022/01/04 13:02:27;;;;;;;1.10;0.63;;;5.90;99.90;;;;;;5028938;28;20102;-74
2022/01/04 13:04:59;;;;;;;8.15;0.52;;;5.90;99.90;;;;;;5022523;28;20176;-74
2022/01/04 13:07:27;;;;;;;4.13;0.70;;;5.90;99.90;;;;;;5029029;28;20033;-74